Time;durP1;ratioP1;P1;durP2;ratioP2;P2;SDS_P1;SDS_P2;PMS_P1;PMS_P2;Temp;Humidity;BMP_temperature;BMP_pressure;BME280_temperature;BME280_humidity;BME280_pressure;Samples;Min_cycle;Max_cycle;Signal;HPM_P1;HPM_P2
2022/03/19 00:01:45;;;;;;;172.57;108.13;;;1.00;98.50;;;;;;4974418;28;20045;-71
2022/03/19 00:04:11;;;;;;;182.90;110.43;;;1.00;98.70;;;;;;4974965;28;20023;-70
2022/03/19 00:06:50;;;;;;;217.13;130.18;;;0.90;99.60;;;;;;4974469;28;20445;-70
2022/03/19 00:09:19;;;;;;;205.82;128.35;;;0.80;99.90;;;;;;4969730;28;20468;-69
2022/03/19 00:11:45;;;;;;;222.00;137.40;;;0.70;99.90;;;;;;4961682;28;20476;-69
2022/03/19 00:14:12;;;;;;;227.05;136.57;;;0.70;99.90;;;;;;4955353;28;20085;-70
2022/03/19 00:16:39;;;;;;;219.68;128.85;;;0.70;99.90;;;;;;4977446;28;20027;-70
2022/03/19 00:19:05;;;;;;;194.35;119.88;;;0.70;99.90;;;;;;4973877;28;20038;-70
2022/03/19 00:21:34;;;;;;;184.40;108.55;;;0.60;99.90;;;;;;4974218;28;20027;-71
2022/03/19 00:24:07;;;;;;;149.27;91.18;;;0.60;99.90;;;;;;4973807;28;20511;-71
2022/03/19 00:26:33;;;;;;;147.75;86.85;;;0.50;99.90;;;;;;4974142;28;20074;-71
2022/03/19 00:29:00;;;;;;;127.40;70.60;;;0.50;99.90;;;;;;4973763;28;20031;-70
2022/03/19 00:31:26;;;;;;;112.45;67.55;;;0.40;99.90;;;;;;4973747;28;20070;-70
2022/03/19 00:33:57;;;;;;;108.07;64.43;;;0.40;99.90;;;;;;4974302;28;20098;-71
2022/03/19 00:36:26;;;;;;;104.80;66.05;;;0.30;99.90;;;;;;4973580;28;20026;-71
2022/03/19 00:38:54;;;;;;;99.05;62.13;;;0.40;99.90;;;;;;4956744;28;20023;-67
2022/03/19 00:41:28;;;;;;;101.85;62.78;;;0.50;99.90;;;;;;4973748;28;20094;-70
2022/03/19 00:43:54;;;;;;;116.63;68.95;;;0.50;99.90;;;;;;4973750;28;20035;-69
2022/03/19 00:46:20;;;;;;;129.77;75.82;;;0.40;99.90;;;;;;4973651;28;20035;-71
2022/03/19 00:48:46;;;;;;;124.70;75.80;;;0.40;99.90;;;;;;4973916;28;20374;-68
2022/03/19 00:51:12;;;;;;;109.72;69.70;;;0.40;99.90;;;;;;4974008;28;20027;-70
2022/03/19 00:53:38;;;;;;;120.72;69.50;;;0.40;99.90;;;;;;4973790;28;20068;-68
2022/03/19 00:56:04;;;;;;;114.55;66.95;;;0.30;99.90;;;;;;4973655;28;20027;-68
2022/03/19 00:58:33;;;;;;;115.60;69.88;;;0.40;99.90;;;;;;4973532;28;20433;-71
2022/03/19 01:00:58;;;;;;;101.63;64.18;;;0.40;99.90;;;;;;4956194;28;20031;-71
2022/03/19 01:03:24;;;;;;;109.53;66.55;;;0.30;99.90;;;;;;4955011;28;20371;-70
2022/03/19 01:05:50;;;;;;;90.63;53.10;;;0.30;99.90;;;;;;4973316;28;20438;-70
2022/03/19 01:08:41;;;;;;;88.85;53.60;;;0.20;99.90;;;;;;4973254;28;20684;-70
2022/03/19 01:11:13;;;;;;;96.15;56.45;;;0.10;99.90;;;;;;4956043;28;20035;-71
2022/03/19 01:13:47;;;;;;;102.70;63.03;;;0.10;99.90;;;;;;4958003;28;20038;-71
2022/03/19 01:16:14;;;;;;;103.38;60.72;;;0.00;99.90;;;;;;4960359;28;20071;-71
2022/03/19 01:18:40;;;;;;;94.68;58.00;;;0.10;99.90;;;;;;4962035;28;20030;-70
2022/03/19 01:21:06;;;;;;;91.82;53.53;;;0.10;99.90;;;;;;4953544;28;20049;-70
2022/03/19 01:23:31;;;;;;;84.13;50.97;;;0.20;99.90;;;;;;4959652;28;20022;-72
2022/03/19 01:25:57;;;;;;;77.50;49.03;;;0.30;99.90;;;;;;4983213;28;20030;-71
2022/03/19 01:28:23;;;;;;;82.63;50.28;;;0.20;99.90;;;;;;4973558;28;20064;-71
2022/03/19 01:30:49;;;;;;;80.40;48.63;;;0.10;99.90;;;;;;4977611;28;20100;-70
2022/03/19 01:33:14;;;;;;;76.18;47.63;;;0.00;99.90;;;;;;4976743;28;20058;-71
2022/03/19 01:35:40;;;;;;;75.68;47.05;;;0.00;99.90;;;;;;4973492;28;20042;-71
2022/03/19 01:38:06;;;;;;;74.95;45.88;;;-0.10;99.90;;;;;;4972948;28;20022;-72
2022/03/19 01:40:32;;;;;;;75.20;50.03;;;0.00;99.90;;;;;;4952251;28;20050;-71
2022/03/19 01:43:00;;;;;;;82.32;50.65;;;0.00;99.90;;;;;;4971104;28;20382;-71
2022/03/19 01:45:26;;;;;;;82.72;46.95;;;0.00;99.90;;;;;;4978482;28;20493;-70
2022/03/19 01:47:53;;;;;;;77.93;46.22;;;-0.10;99.90;;;;;;4974440;28;20101;-72
2022/03/19 01:50:21;;;;;;;75.75;43.97;;;-0.10;99.90;;;;;;4989209;28;20096;-70
2022/03/19 01:52:47;;;;;;;65.65;41.92;;;0.00;99.90;;;;;;4990216;28;20080;-69
2022/03/19 01:55:15;;;;;;;68.78;42.65;;;-0.10;99.90;;;;;;4975931;28;20027;-70
2022/03/19 01:57:52;;;;;;;65.82;41.70;;;-0.10;99.90;;;;;;4972488;28;20106;-71
2022/03/19 02:00:22;;;;;;;71.55;44.05;;;-0.20;99.90;;;;;;4973663;28;20393;-71
2022/03/19 02:02:53;;;;;;;75.18;43.85;;;-0.20;99.90;;;;;;4954291;28;20039;-70
2022/03/19 02:05:25;;;;;;;73.75;44.83;;;-0.20;99.90;;;;;;4972683;28;20043;-71
2022/03/19 02:07:51;;;;;;;66.93;41.85;;;-0.20;99.90;;;;;;4971371;28;20031;-71
2022/03/19 02:10:19;;;;;;;69.60;44.63;;;-0.30;99.90;;;;;;4972744;28;20027;-72
2022/03/19 02:12:46;;;;;;;68.63;42.33;;;-0.30;99.90;;;;;;4972024;28;20098;-69
2022/03/19 02:15:15;;;;;;;66.05;39.30;;;-0.20;99.90;;;;;;4973455;28;20117;-71
2022/03/19 02:17:45;;;;;;;67.03;40.72;;;-0.10;99.90;;;;;;4955207;28;20027;-71
2022/03/19 02:26:21;;;;;;;65.88;40.63;;;-0.20;99.90;;;;;;4991615;28;20164;-71
2022/03/19 02:28:50;;;;;;;64.10;40.22;;;-0.20;99.90;;;;;;4991553;28;20137;-72
2022/03/19 02:31:28;;;;;;;67.68;41.70;;;-0.20;99.90;;;;;;4991766;28;20049;-71
2022/03/19 02:33:56;;;;;;;64.05;40.25;;;-0.20;99.90;;;;;;4992027;28;20062;-71
2022/03/19 02:36:29;;;;;;;59.70;39.03;;;-0.20;99.90;;;;;;4989806;28;20109;-71
2022/03/19 02:38:58;;;;;;;64.18;40.03;;;-0.30;99.90;;;;;;4948152;28;20038;-71
2022/03/19 02:41:24;;;;;;;64.20;38.92;;;-0.30;99.90;;;;;;4976135;28;20034;-72
2022/03/19 02:43:50;;;;;;;63.88;37.60;;;-0.20;99.90;;;;;;4975795;28;20035;-67
2022/03/19 02:46:18;;;;;;;64.18;40.90;;;-0.20;99.90;;;;;;4975731;28;20090;-71
2022/03/19 02:49:24;;;;;;;61.60;36.83;;;-0.20;99.90;;;;;;4977208;28;20023;-71
2022/03/19 02:51:54;;;;;;;61.92;38.42;;;-0.20;99.90;;;;;;4975316;28;20045;-71
2022/03/19 02:54:31;;;;;;;60.92;36.60;;;-0.30;99.90;;;;;;4978420;28;20109;-71
2022/03/19 02:57:05;;;;;;;60.05;37.42;;;-0.30;99.90;;;;;;4992992;28;20037;-71
2022/03/19 02:59:50;;;;;;;67.97;39.47;;;-0.40;99.90;;;;;;4977571;28;20081;-71
2022/03/19 03:02:21;;;;;;;58.00;37.55;;;-0.40;99.90;;;;;;4958237;28;20077;-71
2022/03/19 03:04:47;;;;;;;56.83;38.13;;;-0.40;99.90;;;;;;4975719;28;20031;-71
2022/03/19 03:07:12;;;;;;;62.70;38.30;;;-0.50;99.90;;;;;;4975547;28;20050;-68
2022/03/19 03:09:38;;;;;;;61.58;38.47;;;-0.40;99.90;;;;;;4973588;28;20057;-71
2022/03/19 03:12:04;;;;;;;63.00;38.13;;;-0.40;99.90;;;;;;4975501;28;20037;-71
2022/03/19 03:14:30;;;;;;;60.97;38.50;;;-0.40;99.90;;;;;;4975399;28;20041;-71
2022/03/19 03:16:59;;;;;;;69.13;39.67;;;-0.30;99.90;;;;;;4975128;28;20098;-71
2022/03/19 03:19:33;;;;;;;57.33;36.53;;;-0.30;99.90;;;;;;4975468;28;20117;-71
2022/03/19 03:22:13;;;;;;;61.10;38.28;;;-0.20;99.90;;;;;;4957772;28;20031;-71
2022/03/19 03:24:41;;;;;;;60.70;38.53;;;-0.20;99.90;;;;;;4973650;28;20481;-70
2022/03/19 03:27:07;;;;;;;68.75;39.03;;;-0.20;99.90;;;;;;4975139;28;20117;-73
2022/03/19 03:29:33;;;;;;;64.57;40.33;;;-0.30;99.90;;;;;;4975225;28;20366;-72
2022/03/19 03:31:58;;;;;;;60.75;39.30;;;-0.30;99.90;;;;;;4975059;28;20050;-72
2022/03/19 03:34:25;;;;;;;63.88;39.63;;;-0.30;99.90;;;;;;4974979;28;20070;-71
2022/03/19 03:36:51;;;;;;;57.85;37.33;;;-0.40;99.90;;;;;;4974875;28;20050;-71
2022/03/19 03:39:17;;;;;;;59.00;35.70;;;-0.50;99.90;;;;;;4974913;28;20405;-69
2022/03/19 03:41:42;;;;;;;56.03;34.35;;;-0.60;99.90;;;;;;4974745;28;20554;-71
2022/03/19 03:44:08;;;;;;;63.17;36.83;;;-0.70;99.90;;;;;;4974681;28;20031;-71
2022/03/19 03:46:38;;;;;;;67.97;40.28;;;-0.70;99.90;;;;;;4974916;28;20033;-71
2022/03/19 03:49:04;;;;;;;61.40;39.55;;;-0.80;99.90;;;;;;4974134;28;20023;-72
2022/03/19 03:51:30;;;;;;;82.40;43.28;;;-0.80;99.90;;;;;;4974860;28;20023;-69
2022/03/19 03:53:59;;;;;;;75.45;44.85;;;-0.80;99.90;;;;;;4974703;28;20433;-70
2022/03/19 03:56:24;;;;;;;71.63;43.97;;;-0.80;99.90;;;;;;4974706;28;20102;-71
2022/03/19 03:59:01;;;;;;;71.38;42.15;;;-0.70;99.90;;;;;;4974840;28;20536;-71
2022/03/19 04:01:27;;;;;;;80.60;41.58;;;-0.80;99.90;;;;;;4957004;28;20049;-70
2022/03/19 04:03:53;;;;;;;70.50;41.20;;;-0.80;99.90;;;;;;4975053;28;20014;-70
2022/03/19 04:06:19;;;;;;;66.45;40.20;;;-0.80;99.90;;;;;;4974248;28;20393;-70
2022/03/19 04:08:45;;;;;;;63.55;39.28;;;-0.90;99.90;;;;;;4974543;28;20040;-70
2022/03/19 04:11:13;;;;;;;60.47;38.35;;;-0.90;99.90;;;;;;4979657;28;20026;-70
2022/03/19 04:13:38;;;;;;;61.70;37.58;;;-0.90;99.90;;;;;;4993608;28;20487;-70
2022/03/19 04:16:04;;;;;;;58.97;37.45;;;-0.90;99.90;;;;;;4994149;28;20038;-71
2022/03/19 04:18:30;;;;;;;59.20;36.60;;;-0.90;99.90;;;;;;4993365;28;20023;-71
2022/03/19 04:21:06;;;;;;;60.17;34.95;;;-0.90;99.90;;;;;;4989211;28;20035;-71
2022/03/19 04:23:32;;;;;;;55.20;33.63;;;-0.90;99.90;;;;;;4972547;28;20035;-71
2022/03/19 04:25:58;;;;;;;55.85;33.75;;;-1.00;99.90;;;;;;4956940;28;20160;-71
2022/03/19 04:28:30;;;;;;;54.40;31.65;;;-1.00;99.90;;;;;;4973714;28;20113;-71
2022/03/19 04:30:56;;;;;;;57.05;33.72;;;-1.00;99.90;;;;;;4955816;28;20138;-71
2022/03/19 04:33:22;;;;;;;53.88;31.80;;;-1.00;99.90;;;;;;4972988;28;20597;-70
2022/03/19 04:38:32;;;;;;;52.30;33.72;;;-1.00;99.90;;;;;;4972907;28;20043;-70
2022/03/19 04:40:59;;;;;;;51.08;30.17;;;-0.90;99.90;;;;;;4956481;28;20449;-68
2022/03/19 04:43:25;;;;;;;49.88;31.33;;;-1.00;99.90;;;;;;4956419;28;20393;-70
2022/03/19 04:45:51;;;;;;;47.70;29.35;;;-1.00;99.90;;;;;;4973874;28;20030;-70
2022/03/19 04:48:17;;;;;;;45.78;30.55;;;-0.90;99.90;;;;;;4973728;28;20042;-67
2022/03/19 04:50:43;;;;;;;56.13;32.70;;;-0.90;99.90;;;;;;4973686;28;20034;-71
2022/03/19 04:53:10;;;;;;;57.60;34.30;;;-1.00;99.90;;;;;;4973297;28;20026;-70
2022/03/19 04:55:38;;;;;;;58.05;33.13;;;-0.80;99.90;;;;;;4973961;28;20027;-71
2022/03/19 04:58:05;;;;;;;55.88;34.80;;;-1.30;99.90;;;;;;4971898;28;20031;-70
2022/03/19 05:00:31;;;;;;;59.00;35.05;;;-1.20;99.90;;;;;;4972264;28;20023;-70
2022/03/19 05:02:57;;;;;;;52.03;34.28;;;-1.20;99.90;;;;;;4973288;28;20054;-70
2022/03/19 05:05:24;;;;;;;60.10;35.65;;;-1.00;99.90;;;;;;4972674;28;20120;-70
2022/03/19 05:07:54;;;;;;;50.55;33.45;;;-0.50;99.90;;;;;;4973218;28;20034;-71
2022/03/19 05:13:06;;;;;;;53.95;37.13;;;0.10;99.90;;;;;;4972939;28;20063;-71
2022/03/19 05:16:18;;;;;;;58.25;36.92;;;0.70;99.90;;;;;;4973089;28;20422;-71
2022/03/19 05:18:50;;;;;;;52.58;33.20;;;1.10;99.90;;;;;;4912940;29;20032;-71
2022/03/19 05:21:17;;;;;;;54.17;35.47;;;1.70;99.90;;;;;;4913517;29;20578;-71
2022/03/19 05:23:55;;;;;;;49.67;34.00;;;2.20;99.90;;;;;;4913521;29;20423;-70
2022/03/19 05:26:21;;;;;;;52.10;33.13;;;2.50;96.50;;;;;;4912966;29;20044;-71
2022/03/19 05:29:04;;;;;;;52.00;32.95;;;2.90;96.20;;;;;;4913254;29;20119;-70
2022/03/19 05:31:45;;;;;;;53.33;34.83;;;3.50;94.90;;;;;;4928984;29;20051;-71
2022/03/19 05:34:43;;;;;;;54.00;34.92;;;3.70;91.40;;;;;;4898071;29;20558;-68
2022/03/19 05:37:17;;;;;;;51.15;32.33;;;4.30;90.30;;;;;;4912913;29;20100;-69
2022/03/19 05:39:55;;;;;;;52.08;34.67;;;4.70;88.40;;;;;;4913217;29;20101;-68
2022/03/19 05:42:32;;;;;;;54.58;36.20;;;4.90;84.60;;;;;;4912698;29;20103;-67
2022/03/19 05:45:24;;;;;;;46.38;34.30;;;5.30;84.20;;;;;;4912652;29;20084;-67
2022/03/19 05:47:51;;;;;;;55.15;37.30;;;5.50;81.80;;;;;;4913294;29;20043;-69
2022/03/19 05:50:58;;;;;;;51.00;36.15;;;5.60;82.00;;;;;;4953505;28;20035;-69
2022/03/19 05:53:37;;;;;;;53.22;37.33;;;5.80;81.60;;;;;;4856547;29;20097;-72
2022/03/19 05:56:09;;;;;;;54.40;36.05;;;5.60;81.30;;;;;;4826452;29;20047;-68
2022/03/19 05:58:35;;;;;;;54.53;34.20;;;6.00;79.40;;;;;;4856263;29;20251;-69
2022/03/19 06:01:01;;;;;;;57.78;37.30;;;6.10;79.30;;;;;;4856474;29;20072;-69
2022/03/19 06:03:27;;;;;;;60.00;39.08;;;5.30;79.30;;;;;;4856727;29;20025;-68
2022/03/19 06:06:29;;;;;;;71.30;43.50;;;4.70;81.00;;;;;;4855122;29;20053;-69
2022/03/19 06:09:13;;;;;;;90.25;55.53;;;4.40;82.80;;;;;;4852386;29;20075;-69
2022/03/19 06:12:06;;;;;;;80.38;52.17;;;4.10;84.80;;;;;;4854241;29;20046;-69
2022/03/19 06:14:34;;;;;;;74.40;44.35;;;3.70;86.40;;;;;;4828863;29;20073;-70
2022/03/19 06:17:03;;;;;;;58.15;35.70;;;3.60;88.60;;;;;;4854573;29;20041;-70
2022/03/19 06:19:28;;;;;;;62.10;39.35;;;3.70;88.30;;;;;;4861277;29;20571;-70
2022/03/19 06:21:57;;;;;;;59.20;38.15;;;3.60;89.60;;;;;;4854493;29;20093;-69
2022/03/19 06:24:23;;;;;;;58.83;40.97;;;3.60;90.40;;;;;;4852436;29;20052;-66
2022/03/19 06:26:52;;;;;;;68.78;39.67;;;3.50;91.00;;;;;;4862066;29;20033;-66
2022/03/19 06:29:18;;;;;;;62.97;39.40;;;3.20;92.30;;;;;;4872539;29;20410;-69
2022/03/19 06:32:05;;;;;;;65.20;41.08;;;3.10;92.80;;;;;;4953170;29;20047;-67
2022/03/19 06:34:39;;;;;;;58.42;39.85;;;3.00;93.60;;;;;;4937816;29;20466;-70
2022/03/19 06:37:39;;;;;;;60.95;39.05;;;3.00;96.10;;;;;;4956776;29;20039;-69
2022/03/19 06:40:39;;;;;;;;;;;;;;;;;;;;;
2022/03/19 06:43:44;;;;;;;72.57;46.05;;;3.50;96.60;;;;;;4967542;28;20034;-69
2022/03/19 06:46:37;;;;;;;74.22;46.25;;;3.70;96.60;;;;;;4961595;28;20047;-70
2022/03/19 06:49:50;;;;;;;73.72;48.30;;;3.90;95.70;;;;;;4976005;28;20045;-69
2022/03/19 06:52:20;;;;;;;79.80;47.83;;;4.00;94.00;;;;;;4956089;28;20031;-67
2022/03/19 06:54:45;;;;;;;66.72;46.88;;;4.30;94.20;;;;;;4973889;28;20058;-68
2022/03/19 06:57:36;;;;;;;64.80;41.15;;;4.40;92.80;;;;;;4978554;28;20202;-68
2022/03/19 07:00:06;;;;;;;54.00;33.10;;;4.40;93.30;;;;;;4976606;28;20031;-69
2022/03/19 07:02:55;;;;;;;55.38;32.90;;;4.40;92.30;;;;;;4977132;28;20555;-70
2022/03/19 07:05:22;;;;;;;48.70;33.05;;;4.70;91.40;;;;;;4976790;28;20035;-68
2022/03/19 07:07:48;;;;;;;49.67;28.10;;;4.50;92.70;;;;;;4978533;28;20054;-67
2022/03/19 07:10:16;;;;;;;44.15;27.95;;;4.70;91.80;;;;;;4977178;28;20125;-68
2022/03/19 07:12:53;;;;;;;55.00;29.02;;;4.80;90.50;;;;;;4972084;28;20028;-69
2022/03/19 07:15:24;;;;;;;48.95;28.05;;;4.80;91.50;;;;;;4974116;28;20023;-69
2022/03/19 07:17:51;;;;;;;43.25;26.65;;;5.10;89.40;;;;;;4977889;28;20026;-70
2022/03/19 07:20:21;;;;;;;45.20;29.25;;;5.30;91.40;;;;;;4978371;28;20030;-69
2022/03/19 07:22:58;;;;;;;43.30;27.98;;;5.50;91.80;;;;;;4967753;28;20027;-69
2022/03/19 07:25:29;;;;;;;39.65;25.33;;;5.70;91.80;;;;;;4973234;28;20062;-69
2022/03/19 07:28:00;;;;;;;50.20;30.95;;;5.90;88.40;;;;;;4973835;28;20034;-69
2022/03/19 07:30:27;;;;;;;43.83;30.50;;;6.10;87.60;;;;;;4974266;28;20070;-68
2022/03/19 07:32:53;;;;;;;45.15;27.73;;;6.50;88.70;;;;;;4977105;28;20461;-68
2022/03/19 07:35:20;;;;;;;41.25;27.35;;;6.80;87.50;;;;;;4973753;28;20062;-68
2022/03/19 07:37:47;;;;;;;37.58;24.75;;;6.90;85.70;;;;;;4973087;28;20096;-69
2022/03/19 07:41:45;;;;;;;40.42;29.25;;;7.10;83.60;;;;;;4975764;28;20026;-68
2022/03/19 07:43:10;;;;;;;49.03;28.30;;;7.00;82.90;;;;;;4985374;28;20080;-69
2022/03/19 07:45:39;;;;;;;42.60;28.63;;;7.40;81.30;;;;;;4976852;28;20045;-68
2022/03/19 07:48:06;;;;;;;59.53;29.58;;;7.50;81.30;;;;;;4988958;28;20030;-69
2022/03/19 07:50:33;;;;;;;45.28;29.48;;;7.70;80.90;;;;;;4976451;28;20069;-69
2022/03/19 07:52:59;;;;;;;51.17;33.53;;;7.70;81.00;;;;;;4992572;28;20033;-70
2022/03/19 07:55:26;;;;;;;44.10;27.52;;;7.70;77.00;;;;;;4992796;28;20037;-70
2022/03/19 07:57:52;;;;;;;50.47;30.67;;;7.80;79.00;;;;;;4993720;28;20069;-71
2022/03/19 08:00:19;;;;;;;48.38;32.75;;;7.70;80.50;;;;;;4976202;28;20077;-70
2022/03/19 08:02:45;;;;;;;46.40;33.17;;;7.90;78.90;;;;;;4992367;28;20097;-70
2022/03/19 08:05:12;;;;;;;55.05;32.28;;;7.90;77.70;;;;;;4993080;28;20030;-69
2022/03/19 08:07:39;;;;;;;49.63;30.75;;;8.00;76.80;;;;;;4954948;28;20277;-69
2022/03/19 08:10:07;;;;;;;51.25;31.45;;;8.10;80.00;;;;;;4974473;28;20054;-69
2022/03/19 08:12:33;;;;;;;45.15;30.13;;;8.20;78.30;;;;;;4980882;28;20066;-67
2022/03/19 08:15:01;;;;;;;54.58;35.05;;;8.30;79.90;;;;;;4973194;28;20473;-69
2022/03/19 08:17:27;;;;;;;50.05;33.65;;;8.40;79.00;;;;;;4982315;28;20038;-69
2022/03/19 08:19:56;;;;;;;53.42;32.15;;;8.40;79.20;;;;;;4973725;28;20023;-68
2022/03/19 08:22:22;;;;;;;48.63;33.65;;;8.50;76.20;;;;;;4967190;28;20027;-66
2022/03/19 08:24:53;;;;;;;53.67;33.35;;;8.80;76.60;;;;;;4973397;28;20436;-69
2022/03/19 08:27:25;;;;;;;53.90;34.88;;;8.90;74.50;;;;;;4973673;28;20034;-70
2022/03/19 08:30:32;;;;;;;57.08;35.45;;;8.90;74.50;;;;;;4973746;28;20023;-69
2022/03/19 08:33:32;;;;;;;48.88;33.33;;;9.00;75.20;;;;;;4955857;28;20041;-68
2022/03/19 08:36:01;;;;;;;58.85;38.22;;;9.00;75.30;;;;;;4855178;29;20062;-67
2022/03/19 08:41:49;;;;;;;47.15;34.75;;;8.80;74.30;;;;;;4857823;29;20504;-69
2022/03/19 08:44:23;;;;;;;52.78;33.92;;;8.60;74.60;;;;;;4842695;29;20038;-70
2022/03/19 08:46:48;;;;;;;62.58;42.88;;;9.00;77.10;;;;;;4857987;29;20042;-69
2022/03/19 08:49:14;;;;;;;54.30;36.67;;;9.20;77.90;;;;;;4857564;29;20169;-68
2022/03/19 08:52:10;;;;;;;55.80;36.95;;;9.40;75.50;;;;;;4859050;29;20033;-69
2022/03/19 08:54:41;;;;;;;52.30;37.22;;;9.40;76.50;;;;;;4858352;29;20552;-70
2022/03/19 08:57:20;;;;;;;53.58;34.90;;;9.10;73.80;;;;;;4855413;29;20060;-69
2022/03/19 09:00:01;;;;;;;46.33;30.83;;;9.10;73.70;;;;;;4842753;29;20044;-71
2022/03/19 09:03:00;;;;;;;40.70;27.02;;;9.10;73.90;;;;;;4856127;29;20049;-70
2022/03/19 09:05:41;;;;;;;41.38;27.13;;;9.30;77.00;;;;;;4819758;29;20087;-70
2022/03/19 09:08:14;;;;;;;42.42;27.95;;;9.40;76.50;;;;;;4806281;29;20053;-67
2022/03/19 09:10:49;;;;;;;39.80;26.08;;;9.50;77.60;;;;;;4821475;29;20494;-71
2022/03/19 09:13:30;;;;;;;44.67;27.88;;;9.60;76.80;;;;;;4865563;29;20135;-68
2022/03/19 09:16:26;;;;;;;44.97;31.60;;;9.60;75.00;;;;;;4898479;29;20044;-69
2022/03/19 09:18:53;;;;;;;49.45;29.30;;;9.60;77.10;;;;;;4912954;29;20534;-70
2022/03/19 09:21:19;;;;;;;48.95;33.72;;;9.80;77.70;;;;;;4912738;29;20056;-69
2022/03/19 09:24:15;;;;;;;55.00;37.10;;;10.00;78.60;;;;;;4912341;29;20052;-70
2022/03/19 09:27:13;;;;;;;44.05;28.67;;;10.00;78.20;;;;;;4856303;29;20520;-70
2022/03/19 09:29:42;;;;;;;41.92;29.20;;;9.90;75.90;;;;;;4858650;29;20037;-70
2022/03/19 09:32:09;;;;;;;42.95;27.73;;;10.20;75.80;;;;;;4856321;29;20144;-69
2022/03/19 09:35:01;;;;;;;41.45;28.60;;;10.30;75.20;;;;;;4856920;29;20132;-71
2022/03/19 09:37:35;;;;;;;43.03;25.48;;;10.50;76.30;;;;;;4856765;29;20064;-70
2022/03/19 09:40:14;;;;;;;44.30;26.90;;;10.30;74.50;;;;;;4856031;29;20053;-70
2022/03/19 09:43:06;;;;;;;50.30;31.50;;;10.60;76.00;;;;;;4864672;29;20045;-70
2022/03/19 09:45:34;;;;;;;37.13;24.55;;;10.80;75.70;;;;;;4901593;29;20052;-69
2022/03/19 09:48:10;;;;;;;36.50;23.75;;;10.60;73.10;;;;;;4911815;29;20443;-70
2022/03/19 09:50:46;;;;;;;51.33;33.10;;;10.60;73.70;;;;;;4889567;29;20047;-70
2022/03/19 09:56:07;;;;;;;35.67;22.63;;;10.70;73.00;;;;;;4889099;29;20039;-68
2022/03/19 09:58:38;;;;;;;34.40;22.05;;;10.90;75.00;;;;;;4892204;29;20119;-69
2022/03/19 10:01:29;;;;;;;;;;;;;;;;;;;;;
2022/03/19 10:04:23;;;;;;;29.75;18.30;;;11.00;71.20;;;;;;4971872;28;20034;-71
2022/03/19 10:10:00;;;;;;;27.38;16.65;;;11.00;71.20;;;;;;4983289;28;20030;-72
2022/03/19 10:12:37;;;;;;;28.73;18.02;;;10.80;70.20;;;;;;4977523;28;20404;-70
2022/03/19 10:15:09;;;;;;;36.95;24.60;;;11.30;70.60;;;;;;4981441;28;20027;-68
2022/03/19 10:17:40;;;;;;;40.15;25.95;;;11.50;71.40;;;;;;4957398;28;20595;-69
2022/03/19 10:20:11;;;;;;;33.50;21.60;;;11.30;70.80;;;;;;4954761;28;20049;-69
2022/03/19 10:22:46;;;;;;;28.13;17.45;;;11.50;69.10;;;;;;4951236;29;20028;-72
2022/03/19 10:25:17;;;;;;;27.42;15.85;;;11.50;69.70;;;;;;4961036;28;20427;-69
2022/03/19 10:27:44;;;;;;;31.55;19.40;;;11.40;69.20;;;;;;4975319;28;20384;-69
2022/03/19 10:30:16;;;;;;;25.88;15.50;;;11.20;69.40;;;;;;4967666;28;20150;-68
2022/03/19 10:32:53;;;;;;;20.45;13.52;;;11.00;69.20;;;;;;4953606;28;20031;-69
2022/03/19 10:35:41;;;;;;;19.70;12.07;;;11.30;68.30;;;;;;4985549;28;20165;-69
2022/03/19 10:38:44;;;;;;;20.50;11.57;;;11.00;65.40;;;;;;4981422;28;20026;-73
2022/03/19 10:41:15;;;;;;;21.25;12.15;;;11.20;64.50;;;;;;4870607;29;20554;-69
2022/03/19 10:44:14;;;;;;;19.80;11.00;;;10.90;65.90;;;;;;4894231;29;20037;-73
2022/03/19 10:47:04;;;;;;;21.40;11.85;;;10.70;64.00;;;;;;4877444;29;20052;-72
2022/03/19 10:49:30;;;;;;;21.67;12.90;;;11.10;67.20;;;;;;4893107;29;20123;-72
2022/03/19 10:51:59;;;;;;;24.48;13.43;;;11.30;66.20;;;;;;4893371;29;20517;-70
2022/03/19 10:54:25;;;;;;;33.95;19.67;;;11.60;67.10;;;;;;4906330;29;20037;-71
2022/03/19 10:56:52;;;;;;;24.55;15.30;;;11.80;67.60;;;;;;4903051;29;20182;-72
2022/03/19 10:59:19;;;;;;;26.85;15.60;;;11.20;62.90;;;;;;4913407;29;20020;-72
2022/03/19 11:01:49;;;;;;;34.50;19.05;;;11.40;66.70;;;;;;4915419;29;20036;-71
2022/03/19 11:04:15;;;;;;;23.33;13.77;;;11.70;66.30;;;;;;4915513;29;20032;-70
2022/03/19 11:06:44;;;;;;;17.05;10.88;;;11.70;63.00;;;;;;4914667;29;20139;-72
2022/03/19 11:09:13;;;;;;;20.00;11.52;;;11.20;62.70;;;;;;4915560;29;20043;-72
2022/03/19 11:12:00;;;;;;;20.77;11.05;;;11.40;63.10;;;;;;4958960;28;20035;-71
2022/03/19 11:14:28;;;;;;;20.15;11.45;;;11.80;63.40;;;;;;4973115;28;20509;-70
2022/03/19 11:17:23;;;;;;;17.90;9.35;;;11.80;60.60;;;;;;4957364;28;20114;-72
2022/03/19 11:20:02;;;;;;;18.23;10.50;;;11.80;58.20;;;;;;4980924;28;20358;-72
2022/03/19 11:22:42;;;;;;;18.27;10.90;;;11.90;60.90;;;;;;4972410;28;20030;-71
2022/03/19 11:25:30;;;;;;;29.85;14.40;;;12.30;62.10;;;;;;4954097;28;20039;-68
2022/03/19 11:28:06;;;;;;;21.20;12.48;;;12.30;60.90;;;;;;4937246;28;20385;-70
2022/03/19 11:30:36;;;;;;;21.58;12.80;;;11.90;59.70;;;;;;4952539;28;20059;-69
2022/03/19 11:33:20;;;;;;;21.30;12.32;;;11.70;62.00;;;;;;4958061;28;20026;-70
2022/03/19 11:35:56;;;;;;;20.17;12.60;;;11.70;61.30;;;;;;4988871;28;20515;-69
2022/03/19 11:38:23;;;;;;;18.17;11.32;;;12.00;62.50;;;;;;4984092;28;20385;-68
2022/03/19 11:40:58;;;;;;;20.45;12.38;;;12.20;64.20;;;;;;4970882;28;20057;-69
2022/03/19 11:43:24;;;;;;;18.98;10.45;;;12.30;61.10;;;;;;4957473;28;20120;-70
2022/03/19 11:46:00;;;;;;;19.48;11.23;;;12.00;58.30;;;;;;4974681;28;20031;-70
2022/03/19 11:48:35;;;;;;;16.95;9.30;;;11.70;57.20;;;;;;4974668;28;20110;-69
2022/03/19 11:51:26;;;;;;;14.77;8.10;;;12.00;57.90;;;;;;4974333;28;20481;-70
2022/03/19 11:53:59;;;;;;;15.88;8.70;;;12.00;59.00;;;;;;4957122;28;20046;-70
2022/03/19 11:56:48;;;;;;;18.88;11.30;;;11.60;58.20;;;;;;4974263;28;20034;-70
2022/03/19 11:59:27;;;;;;;22.95;11.30;;;11.20;60.20;;;;;;4956997;28;20401;-70
2022/03/19 12:01:58;;;;;;;19.65;10.93;;;11.40;62.80;;;;;;4974293;28;20171;-72
2022/03/19 12:04:47;;;;;;;19.63;10.05;;;11.50;59.40;;;;;;4981485;28;20102;-70
2022/03/19 12:07:39;;;;;;;18.63;10.77;;;11.60;57.50;;;;;;4954009;28;20093;-71
2022/03/19 12:10:27;;;;;;;16.58;9.90;;;11.90;60.80;;;;;;4957411;28;20027;-70
2022/03/19 12:12:58;;;;;;;16.05;9.18;;;12.30;60.20;;;;;;4959162;28;20115;-68
2022/03/19 12:15:33;;;;;;;17.85;9.70;;;12.40;58.40;;;;;;4951296;28;20098;-67
2022/03/19 12:18:32;;;;;;;20.83;10.50;;;12.50;60.10;;;;;;4967102;28;20504;-68
2022/03/19 12:21:03;;;;;;;19.42;10.63;;;12.50;58.40;;;;;;4955417;28;20031;-69
2022/03/19 12:24:08;;;;;;;22.10;12.50;;;12.60;57.80;;;;;;4959229;28;20027;-70
2022/03/19 12:26:46;;;;;;;36.63;12.10;;;12.50;57.90;;;;;;4958458;28;20035;-69
2022/03/19 12:29:15;;;;;;;18.02;10.15;;;12.20;57.30;;;;;;4955453;28;20027;-71
2022/03/19 12:31:46;;;;;;;22.38;13.88;;;11.70;56.60;;;;;;4959670;28;20054;-71
2022/03/19 12:34:18;;;;;;;21.58;12.70;;;12.00;59.10;;;;;;4956110;28;20056;-71
2022/03/19 12:36:47;;;;;;;18.73;11.32;;;12.30;61.10;;;;;;4957149;28;20031;-71
2022/03/19 12:39:14;;;;;;;18.95;10.63;;;12.50;60.80;;;;;;4969910;28;20507;-72
2022/03/19 12:41:42;;;;;;;22.90;11.05;;;12.60;58.50;;;;;;4993388;28;20098;-70
2022/03/19 12:44:21;;;;;;;16.67;10.35;;;12.60;57.60;;;;;;4971194;28;20030;-67
2022/03/19 12:46:53;;;;;;;22.58;11.45;;;12.70;57.20;;;;;;4968632;28;20096;-69
2022/03/19 12:49:19;;;;;;;17.63;10.55;;;12.70;55.90;;;;;;4987641;28;20373;-71
2022/03/19 12:51:47;;;;;;;15.15;8.35;;;12.30;54.60;;;;;;4983516;28;20043;-70
2022/03/19 12:54:22;;;;;;;28.20;11.57;;;12.10;54.50;;;;;;4973592;28;20031;-70
2022/03/19 12:56:50;;;;;;;18.58;10.55;;;12.10;55.20;;;;;;4972827;28;20026;-69
2022/03/19 12:59:18;;;;;;;17.88;9.85;;;11.90;54.50;;;;;;4973316;28;20039;-69
2022/03/19 13:01:44;;;;;;;19.17;10.10;;;11.70;53.60;;;;;;4973406;28;20039;-69
2022/03/19 13:04:19;;;;;;;17.95;9.32;;;11.40;53.60;;;;;;4980579;28;20039;-72
2022/03/19 13:06:45;;;;;;;19.27;10.52;;;11.30;53.90;;;;;;4956267;28;20448;-72
2022/03/19 13:09:11;;;;;;;18.95;10.00;;;11.10;54.70;;;;;;4973580;28;20042;-71
2022/03/19 13:11:47;;;;;;;18.05;9.85;;;11.20;54.90;;;;;;4979847;28;20031;-71
2022/03/19 13:14:14;;;;;;;18.05;9.38;;;11.50;56.20;;;;;;4990876;28;20030;-70
2022/03/19 13:16:43;;;;;;;32.55;11.95;;;11.60;55.80;;;;;;4954296;29;20046;-71
2022/03/19 13:19:09;;;;;;;17.58;10.73;;;11.90;55.60;;;;;;4988017;28;20027;-72
2022/03/19 13:21:38;;;;;;;19.40;10.32;;;12.10;57.20;;;;;;4992582;28;20030;-71
2022/03/19 13:24:08;;;;;;;19.05;11.32;;;12.30;57.20;;;;;;4992457;28;20034;-69